Time;durP1;ratioP1;P1;durP2;ratioP2;P2;SDS_P1;SDS_P2;PMS_P1;PMS_P2;Temp;Humidity;BMP_temperature;BMP_pressure;BME280_temperature;BME280_humidity;BME280_pressure;Samples;Min_cycle;Max_cycle;Signal;HPM_P1;HPM_P2
2023/03/04 00:01:59;;;;;;;17.67;4.27;;;3.30;99.90;;;;;;4861109;29;20181;-82
2023/03/04 00:04:24;;;;;;;16.87;4.50;;;3.30;99.90;;;;;;4859352;29;20208;-83
2023/03/04 00:06:50;;;;;;;22.10;5.63;;;3.40;99.90;;;;;;4860426;29;20595;-83
2023/03/04 00:09:15;;;;;;;16.33;4.83;;;3.50;99.90;;;;;;4864239;29;20642;-83
2023/03/04 00:11:41;;;;;;;19.77;5.17;;;3.40;99.90;;;;;;4879687;29;20624;-83
2023/03/04 00:14:07;;;;;;;21.10;5.27;;;3.40;99.90;;;;;;4859809;29;20279;-83
2023/03/04 00:16:32;;;;;;;20.77;4.83;;;3.50;99.90;;;;;;4859786;29;20200;-82
2023/03/04 00:18:58;;;;;;;18.83;5.17;;;3.40;99.90;;;;;;4844385;29;20183;-83
2023/03/04 00:21:24;;;;;;;20.07;3.87;;;3.40;99.90;;;;;;4859552;29;20580;-83
2023/03/04 00:23:50;;;;;;;21.10;4.50;;;3.40;99.90;;;;;;4869294;29;20217;-83
2023/03/04 00:26:16;;;;;;;20.83;5.00;;;3.50;99.90;;;;;;4879536;29;20219;-83
2023/03/04 00:28:42;;;;;;;18.60;4.27;;;3.50;99.90;;;;;;4879506;29;20232;-84
2023/03/04 00:31:08;;;;;;;26.00;5.33;;;3.50;99.90;;;;;;4879393;29;20228;-83
2023/03/04 00:33:34;;;;;;;18.43;4.00;;;3.60;99.90;;;;;;4867149;29;20192;-82
2023/03/04 00:36:00;;;;;;;19.33;4.77;;;3.70;99.90;;;;;;4844389;29;20312;-83
2023/03/04 00:38:27;;;;;;;19.73;3.63;;;3.70;99.90;;;;;;4859569;29;20201;-82
2023/03/04 00:40:53;;;;;;;15.67;4.50;;;3.80;99.90;;;;;;4844116;29;20531;-83
2023/03/04 00:43:19;;;;;;;17.73;4.53;;;3.80;99.90;;;;;;4860325;29;20204;-83
2023/03/04 00:45:45;;;;;;;23.13;4.17;;;3.80;99.90;;;;;;4845398;29;20233;-83
2023/03/04 00:48:10;;;;;;;18.23;4.10;;;3.80;99.90;;;;;;4862321;29;20217;-82
2023/03/04 00:50:36;;;;;;;28.47;4.90;;;3.90;99.90;;;;;;4862654;29;20278;-83
2023/03/04 00:53:02;;;;;;;23.00;3.87;;;3.90;99.90;;;;;;4862399;29;20191;-83
2023/03/04 00:55:28;;;;;;;17.40;4.20;;;3.90;99.90;;;;;;4862798;29;20203;-83
2023/03/04 00:57:54;;;;;;;15.20;4.30;;;3.90;99.90;;;;;;4862481;29;20191;-83
2023/03/04 01:00:20;;;;;;;19.83;4.37;;;4.00;99.90;;;;;;4865753;29;20192;-84
2023/03/04 01:02:45;;;;;;;24.23;4.13;;;4.00;99.90;;;;;;4865704;29;20632;-83
2023/03/04 01:05:11;;;;;;;17.07;3.83;;;4.00;99.90;;;;;;4865914;29;20214;-83
2023/03/04 01:07:37;;;;;;;20.27;3.97;;;4.00;99.90;;;;;;4865840;29;20199;-83
2023/03/04 01:10:05;;;;;;;20.23;4.17;;;3.90;99.90;;;;;;4864925;29;20191;-84
2023/03/04 01:12:30;;;;;;;20.83;3.90;;;4.00;99.90;;;;;;4865735;29;20187;-84
2023/03/04 01:14:56;;;;;;;12.00;3.00;;;4.00;99.90;;;;;;4882569;29;20187;-84
2023/03/04 01:17:22;;;;;;;19.87;3.47;;;4.10;99.90;;;;;;4882341;29;20184;-84
2023/03/04 01:19:48;;;;;;;18.17;3.27;;;4.00;99.90;;;;;;5257233;23;20247;-83
2023/03/04 01:22:15;;;;;;;17.37;3.43;;;4.00;99.90;;;;;;4900933;29;20630;-83
2023/03/04 01:24:41;;;;;;;18.13;3.83;;;4.00;99.90;;;;;;4899808;29;20270;-83
2023/03/04 01:27:07;;;;;;;18.83;3.33;;;4.10;99.90;;;;;;4899758;29;20183;-83
2023/03/04 01:29:33;;;;;;;12.50;3.07;;;4.10;99.90;;;;;;4899378;29;20531;-83
2023/03/04 01:31:58;;;;;;;13.40;2.87;;;4.10;99.90;;;;;;4900720;29;20198;-83
2023/03/04 01:34:24;;;;;;;15.90;3.13;;;4.10;99.90;;;;;;4900123;29;20183;-82
2023/03/04 01:36:50;;;;;;;20.27;3.37;;;4.20;99.90;;;;;;4883075;29;20175;-83
2023/03/04 01:39:15;;;;;;;17.50;2.70;;;4.20;99.90;;;;;;4883555;29;20619;-83
2023/03/04 01:41:42;;;;;;;15.00;3.10;;;4.20;99.90;;;;;;4900317;29;20662;-82
2023/03/04 01:44:09;;;;;;;8.40;2.77;;;4.30;99.90;;;;;;4883647;29;20643;-83
2023/03/04 01:46:36;;;;;;;16.27;2.90;;;4.30;99.90;;;;;;4883690;29;20214;-83
2023/03/04 01:49:02;;;;;;;10.97;2.73;;;4.30;99.90;;;;;;4882603;29;20183;-83
2023/03/04 01:51:28;;;;;;;17.70;2.77;;;4.30;99.90;;;;;;4883427;29;20543;-83
2023/03/04 01:53:54;;;;;;;11.33;2.37;;;4.30;99.90;;;;;;4883680;29;20183;-83
2023/03/04 01:56:24;;;;;;;11.77;2.60;;;4.30;99.90;;;;;;4883499;29;20179;-83
2023/03/04 01:59:11;;;;;;;14.47;2.90;;;4.40;99.90;;;;;;4898852;29;20205;-82
2023/03/04 02:01:37;;;;;;;15.53;2.90;;;4.40;99.90;;;;;;4882821;29;20187;-83
2023/03/04 02:04:03;;;;;;;12.00;2.60;;;4.40;99.90;;;;;;4883095;29;20224;-83
2023/03/04 02:06:29;;;;;;;14.83;2.60;;;4.40;99.90;;;;;;4899721;29;20289;-82
2023/03/04 02:08:55;;;;;;;10.77;2.53;;;4.40;99.90;;;;;;4899459;29;20203;-83
2023/03/04 02:11:20;;;;;;;12.33;2.87;;;4.40;99.90;;;;;;4882687;29;20194;-82
2023/03/04 02:13:46;;;;;;;11.60;1.90;;;4.30;99.90;;;;;;4900224;29;20303;-83
2023/03/04 02:16:12;;;;;;;15.03;2.37;;;4.20;99.90;;;;;;4882978;29;20238;-83
2023/03/04 02:18:37;;;;;;;13.97;2.90;;;4.40;99.90;;;;;;4882481;29;20714;-84
2023/03/04 02:21:24;;;;;;;9.53;2.27;;;4.30;99.90;;;;;;4882498;29;20235;-83
2023/03/04 02:24:14;;;;;;;10.50;2.10;;;4.30;99.90;;;;;;4883081;29;20179;-83
2023/03/04 02:26:42;;;;;;;17.27;2.63;;;4.30;99.90;;;;;;4899821;29;20206;-83
2023/03/04 02:29:10;;;;;;;17.40;2.60;;;4.30;99.90;;;;;;4882877;29;20199;-83
2023/03/04 02:31:48;;;;;;;11.23;2.50;;;4.30;99.90;;;;;;4882756;29;20650;-83
2023/03/04 02:34:18;;;;;;;11.10;2.53;;;4.40;99.90;;;;;;4882174;29;20210;-82
2023/03/04 02:36:45;;;;;;;14.00;2.90;;;4.30;99.90;;;;;;4881853;29;20195;-84
2023/03/04 02:39:20;;;;;;;12.80;2.30;;;4.30;99.90;;;;;;4882535;29;20210;-83
2023/03/04 02:41:47;;;;;;;8.43;2.23;;;4.40;99.90;;;;;;4882341;29;20254;-82
2023/03/04 02:44:21;;;;;;;11.60;2.40;;;4.40;99.90;;;;;;4882554;29;20179;-82
2023/03/04 02:46:48;;;;;;;9.53;2.30;;;4.40;99.90;;;;;;4882601;29;20662;-82
2023/03/04 02:49:13;;;;;;;8.87;2.40;;;4.30;99.90;;;;;;4882249;29;20187;-83
2023/03/04 02:51:39;;;;;;;18.13;2.60;;;4.40;99.90;;;;;;4899373;29;20206;-84
2023/03/04 02:54:14;;;;;;;10.67;2.57;;;4.40;99.90;;;;;;4882298;29;20188;-81
2023/03/04 02:56:45;;;;;;;14.43;2.93;;;4.40;99.90;;;;;;4897801;29;20207;-83
2023/03/04 02:59:10;;;;;;;11.77;2.43;;;4.50;99.90;;;;;;4882335;29;20187;-82
2023/03/04 03:01:36;;;;;;;14.00;2.70;;;4.50;99.90;;;;;;4882095;29;20571;-83
2023/03/04 03:04:02;;;;;;;8.07;1.77;;;4.50;99.90;;;;;;4897419;29;20603;-83
2023/03/04 03:06:27;;;;;;;15.17;2.40;;;4.40;99.90;;;;;;4898182;29;20219;-83
2023/03/04 03:08:53;;;;;;;11.83;2.50;;;4.50;99.90;;;;;;4899087;29;20183;-82
2023/03/04 03:11:19;;;;;;;10.83;2.57;;;4.50;99.90;;;;;;4882138;29;20183;-82
2023/03/04 03:13:44;;;;;;;9.90;1.67;;;4.50;99.90;;;;;;4882332;29;20179;-83
2023/03/04 03:16:10;;;;;;;16.73;2.57;;;4.60;99.90;;;;;;4897993;29;20243;-83
2023/03/04 03:18:36;;;;;;;15.30;2.60;;;4.60;99.90;;;;;;4897857;29;20273;-83
2023/03/04 03:21:01;;;;;;;13.50;2.53;;;4.50;99.90;;;;;;4881252;29;20618;-83
2023/03/04 03:23:27;;;;;;;10.57;2.10;;;4.40;99.90;;;;;;4898925;29;20176;-84
2023/03/04 03:25:52;;;;;;;11.03;2.43;;;4.40;99.90;;;;;;4881851;29;20973;-83
2023/03/04 03:28:18;;;;;;;13.70;2.67;;;4.50;99.90;;;;;;4882015;29;20630;-83
2023/03/04 03:30:44;;;;;;;13.37;2.33;;;4.50;99.90;;;;;;4881959;29;20188;-83
2023/03/04 03:33:09;;;;;;;14.27;2.13;;;4.50;99.90;;;;;;4881953;29;20202;-83
2023/03/04 03:35:35;;;;;;;12.00;2.10;;;4.50;99.90;;;;;;4881875;29;20187;-84
2023/03/04 03:38:01;;;;;;;20.27;2.53;;;4.50;99.90;;;;;;4881753;29;20274;-83
2023/03/04 03:40:26;;;;;;;11.07;2.07;;;4.60;99.90;;;;;;4881570;29;20603;-83
2023/03/04 03:42:52;;;;;;;10.03;2.00;;;4.50;99.90;;;;;;4881792;29;20194;-84
2023/03/04 03:45:18;;;;;;;8.13;2.53;;;4.40;99.90;;;;;;4881867;29;20281;-84
2023/03/04 03:47:44;;;;;;;12.13;2.20;;;4.30;99.90;;;;;;4898774;29;20187;-83
2023/03/04 03:50:10;;;;;;;10.00;2.30;;;4.40;99.90;;;;;;4880458;29;20184;-82
2023/03/04 03:52:36;;;;;;;9.93;2.67;;;4.50;99.90;;;;;;4897911;29;20199;-82
2023/03/04 03:55:01;;;;;;;15.93;2.73;;;4.40;99.90;;;;;;4898269;29;20187;-84
2023/03/04 03:57:28;;;;;;;15.33;2.67;;;4.40;99.90;;;;;;4880114;29;20191;-83
2023/03/04 03:59:54;;;;;;;7.67;2.33;;;4.30;99.90;;;;;;4881669;29;20179;-83
2023/03/04 04:02:21;;;;;;;13.73;2.30;;;4.40;99.90;;;;;;4898393;29;20183;-83
2023/03/04 04:04:47;;;;;;;12.40;2.33;;;4.40;99.90;;;;;;4898343;29;20191;-83
2023/03/04 04:07:12;;;;;;;12.43;2.60;;;4.30;99.90;;;;;;4881555;29;20187;-82
2023/03/04 04:09:38;;;;;;;13.63;3.03;;;4.30;99.90;;;;;;4881461;29;20194;-83
2023/03/04 04:12:05;;;;;;;12.83;2.67;;;4.40;99.90;;;;;;4881471;29;20190;-83
2023/03/04 04:14:32;;;;;;;10.43;2.60;;;4.40;99.90;;;;;;4881600;29;20567;-83
2023/03/04 04:16:58;;;;;;;15.10;2.33;;;4.30;99.90;;;;;;4881602;29;20188;-83
2023/03/04 04:19:23;;;;;;;13.53;2.40;;;4.30;99.90;;;;;;4880011;29;20231;-83
2023/03/04 04:21:49;;;;;;;11.97;2.10;;;4.40;99.90;;;;;;4880290;29;20242;-82
2023/03/04 04:24:15;;;;;;;6.80;1.80;;;4.30;99.90;;;;;;4898188;29;20172;-83
2023/03/04 04:26:41;;;;;;;14.03;1.93;;;4.40;99.90;;;;;;4881544;29;20217;-83
2023/03/04 04:29:08;;;;;;;7.03;2.47;;;4.40;99.90;;;;;;4881019;29;20175;-83
2023/03/04 04:31:34;;;;;;;13.63;2.17;;;4.40;99.90;;;;;;4898200;29;20189;-83
2023/03/04 04:34:00;;;;;;;8.80;2.27;;;4.40;99.90;;;;;;4882912;29;20183;-83
2023/03/04 04:36:25;;;;;;;6.80;1.40;;;4.40;99.90;;;;;;4901514;29;20525;-83
2023/03/04 04:38:51;;;;;;;11.50;2.30;;;4.50;99.90;;;;;;4884907;29;20270;-83
2023/03/04 04:41:23;;;;;;;9.27;2.33;;;4.40;99.90;;;;;;4884724;29;20187;-84
2023/03/04 04:43:49;;;;;;;6.87;2.00;;;4.40;99.90;;;;;;4901692;29;20194;-83
2023/03/04 04:46:15;;;;;;;9.37;2.10;;;4.40;99.90;;;;;;4900502;29;20218;-83
2023/03/04 04:48:41;;;;;;;10.83;2.03;;;4.40;99.90;;;;;;4884610;29;20183;-83
2023/03/04 04:51:06;;;;;;;7.43;1.60;;;4.50;99.90;;;;;;4884251;29;20262;-83
2023/03/04 04:53:32;;;;;;;11.87;1.90;;;4.50;99.90;;;;;;4900350;29;20195;-84
2023/03/04 04:55:58;;;;;;;8.03;2.10;;;4.40;99.90;;;;;;4883924;29;20678;-83
2023/03/04 04:58:24;;;;;;;8.20;2.10;;;4.40;99.90;;;;;;4900638;29;20270;-83
2023/03/04 05:00:49;;;;;;;12.10;1.73;;;4.50;99.90;;;;;;4901211;29;20187;-83
2023/03/04 05:03:15;;;;;;;7.37;1.93;;;4.50;99.90;;;;;;4901325;29;20180;-82
2023/03/04 05:05:41;;;;;;;9.77;1.90;;;4.60;99.90;;;;;;4884176;29;20211;-82
2023/03/04 05:08:07;;;;;;;8.23;1.70;;;4.50;99.90;;;;;;4884377;29;20270;-83
2023/03/04 05:10:32;;;;;;;9.23;2.13;;;4.50;99.90;;;;;;4884234;29;20207;-83
2023/03/04 05:12:58;;;;;;;12.87;1.80;;;4.50;99.90;;;;;;4884390;29;20230;-84
2023/03/04 05:15:24;;;;;;;14.13;2.00;;;4.50;99.90;;;;;;4901253;29;20176;-83
2023/03/04 05:17:49;;;;;;;9.23;1.93;;;4.50;99.90;;;;;;4884309;29;20222;-83
2023/03/04 05:20:15;;;;;;;5.47;1.80;;;4.50;99.90;;;;;;4883330;29;20235;-82
2023/03/04 05:22:41;;;;;;;8.10;1.80;;;4.50;99.90;;;;;;4882998;29;20538;-82
2023/03/04 05:25:07;;;;;;;9.63;2.13;;;4.50;99.90;;;;;;4899696;29;20183;-83
2023/03/04 05:27:33;;;;;;;5.83;1.80;;;4.50;99.90;;;;;;4884064;29;20688;-83
2023/03/04 05:29:58;;;;;;;9.10;2.23;;;4.40;99.90;;;;;;4884026;29;20184;-82
2023/03/04 05:32:24;;;;;;;6.47;1.90;;;4.40;99.90;;;;;;4884062;29;20195;-84
2023/03/04 05:34:50;;;;;;;12.57;2.33;;;4.30;99.90;;;;;;4883897;29;20186;-83
2023/03/04 05:37:15;;;;;;;12.87;2.47;;;4.40;99.90;;;;;;4883977;29;20191;-83
2023/03/04 05:39:41;;;;;;;9.03;2.20;;;4.30;99.90;;;;;;4884037;29;20179;-83
2023/03/04 05:42:07;;;;;;;12.33;2.93;;;4.20;99.90;;;;;;4899904;29;20838;-82
2023/03/04 05:44:32;;;;;;;9.07;2.37;;;4.30;99.90;;;;;;4883191;29;20191;-83
2023/03/04 06:00:35;;;;;;;9.13;1.90;;;4.30;99.90;;;;;;4881979;29;20175;-84
2023/03/04 06:03:01;;;;;;;9.53;2.40;;;4.20;99.90;;;;;;4864942;29;20207;-83
2023/03/04 06:05:27;;;;;;;8.23;2.53;;;4.20;99.90;;;;;;4864698;29;20723;-83
2023/03/04 06:07:52;;;;;;;8.90;2.50;;;4.20;99.90;;;;;;4865295;29;20184;-83
2023/03/04 06:10:18;;;;;;;9.30;2.17;;;4.10;99.90;;;;;;4864547;29;20271;-84
2023/03/04 06:12:44;;;;;;;11.27;2.57;;;4.20;99.90;;;;;;4881360;29;20236;-83
2023/03/04 06:15:11;;;;;;;5.40;2.10;;;4.20;99.90;;;;;;4864792;29;20179;-83
2023/03/04 06:17:38;;;;;;;7.63;2.30;;;4.20;99.90;;;;;;4892349;29;20234;-83
2023/03/04 06:20:07;;;;;;;12.93;3.10;;;4.20;99.90;;;;;;4882497;29;20713;-84
2023/03/04 06:22:34;;;;;;;9.10;2.20;;;4.30;99.90;;;;;;4899126;29;20290;-82
2023/03/04 06:25:00;;;;;;;6.97;2.17;;;4.20;99.90;;;;;;4882982;29;20187;-83
2023/03/04 06:27:26;;;;;;;6.90;1.90;;;4.20;99.90;;;;;;4883062;29;20188;-83
2023/03/04 06:29:52;;;;;;;6.53;2.20;;;4.20;99.90;;;;;;4899644;29;20512;-82
2023/03/04 06:32:18;;;;;;;7.27;2.03;;;4.20;99.90;;;;;;4882805;29;20191;-82
2023/03/04 06:34:44;;;;;;;8.27;2.30;;;4.20;99.90;;;;;;4899935;29;20184;-83
2023/03/04 06:37:09;;;;;;;5.43;1.87;;;4.30;99.90;;;;;;4882825;29;20183;-83
2023/03/04 06:39:35;;;;;;;9.87;1.97;;;4.30;99.90;;;;;;4899446;29;20190;-83
2023/03/04 06:42:01;;;;;;;5.17;2.10;;;4.20;99.90;;;;;;4882709;29;20183;-83
2023/03/04 06:44:26;;;;;;;7.83;2.30;;;4.30;99.90;;;;;;4882988;29;20179;-83
2023/03/04 06:46:52;;;;;;;7.53;2.07;;;4.30;99.90;;;;;;4882750;29;20207;-83
2023/03/04 06:49:18;;;;;;;7.77;1.87;;;4.30;99.90;;;;;;4882608;29;20278;-83
2023/03/04 06:51:43;;;;;;;5.87;1.97;;;4.40;99.90;;;;;;4898999;29;20179;-83
2023/03/04 06:54:09;;;;;;;8.90;3.00;;;4.40;99.90;;;;;;4899312;29;20179;-83
2023/03/04 06:56:35;;;;;;;7.33;2.10;;;4.30;99.90;;;;;;4882100;29;20179;-83
2023/03/04 06:59:01;;;;;;;6.87;2.30;;;4.30;99.90;;;;;;4882511;29;20243;-83
2023/03/04 07:01:28;;;;;;;11.93;2.37;;;4.30;99.90;;;;;;4882636;29;20183;-83
2023/03/04 07:03:55;;;;;;;6.53;2.00;;;4.30;99.90;;;;;;4882428;29;20183;-83
2023/03/04 07:06:24;;;;;;;6.37;2.03;;;4.30;99.90;;;;;;4881852;29;20267;-81
2023/03/04 07:08:50;;;;;;;9.70;2.13;;;4.30;99.90;;;;;;4899232;29;20289;-83
2023/03/04 07:11:17;;;;;;;6.83;2.10;;;4.20;99.90;;;;;;4898894;29;20235;-83
2023/03/04 07:13:46;;;;;;;9.00;2.00;;;4.30;99.90;;;;;;4899158;29;20182;-82
2023/03/04 07:16:14;;;;;;;7.13;2.00;;;4.20;99.90;;;;;;4882514;29;20187;-84
2023/03/04 07:18:39;;;;;;;4.50;1.90;;;4.30;99.90;;;;;;4880509;29;20637;-82
2023/03/04 07:21:06;;;;;;;11.47;2.37;;;4.40;99.90;;;;;;4880774;29;20235;-82
2023/03/04 07:23:33;;;;;;;6.57;1.97;;;4.40;99.90;;;;;;4881487;29;20175;-83
2023/03/04 07:25:59;;;;;;;8.20;1.70;;;4.40;99.90;;;;;;4898333;29;20214;-81
2023/03/04 07:28:25;;;;;;;8.80;1.80;;;4.40;99.90;;;;;;4881834;29;20187;-83
2023/03/04 07:30:50;;;;;;;8.20;2.10;;;4.50;99.90;;;;;;4880223;29;20285;-83
2023/03/04 07:33:16;;;;;;;6.17;1.60;;;4.50;99.90;;;;;;4881652;29;20266;-83
2023/03/04 07:35:42;;;;;;;11.70;2.33;;;4.50;99.90;;;;;;4898380;29;20619;-82
2023/03/04 07:38:08;;;;;;;6.63;1.70;;;4.50;99.90;;;;;;4897455;29;20653;-83
2023/03/04 07:40:33;;;;;;;5.93;1.80;;;4.50;99.90;;;;;;4898364;29;20183;-82
2023/03/04 07:43:00;;;;;;;14.63;2.57;;;4.50;99.90;;;;;;4897425;29;20207;-83
2023/03/04 07:45:26;;;;;;;5.20;1.83;;;4.50;99.90;;;;;;4897047;29;20210;-83
2023/03/04 07:47:53;;;;;;;8.67;1.97;;;4.40;99.90;;;;;;4880169;29;20190;-82
2023/03/04 07:50:18;;;;;;;6.00;2.03;;;4.50;99.90;;;;;;4881105;29;20191;-82
2023/03/04 07:52:46;;;;;;;7.27;2.20;;;4.50;99.90;;;;;;4881442;29;20278;-83
2023/03/04 07:55:14;;;;;;;5.27;2.30;;;4.50;99.90;;;;;;4880737;29;20610;-83
2023/03/04 07:57:41;;;;;;;8.67;2.00;;;4.60;99.90;;;;;;4880454;29;20193;-84
2023/03/04 08:00:08;;;;;;;4.53;2.13;;;4.60;99.90;;;;;;4880386;29;20691;-83
2023/03/04 08:02:34;;;;;;;5.80;2.10;;;4.50;99.90;;;;;;4880824;29;20187;-82
2023/03/04 08:05:00;;;;;;;6.10;1.97;;;4.50;99.90;;;;;;4880209;29;20205;-83
2023/03/04 08:07:26;;;;;;;5.33;2.30;;;4.50;99.90;;;;;;4882834;29;20202;-84
2023/03/04 08:09:51;;;;;;;5.57;2.03;;;4.50;99.90;;;;;;4885341;29;20198;-83
2023/03/04 08:12:17;;;;;;;8.13;2.57;;;4.60;99.90;;;;;;4884807;29;20235;-83
2023/03/04 08:14:43;;;;;;;11.20;2.70;;;4.70;99.90;;;;;;4884142;29;20195;-84
2023/03/04 08:17:09;;;;;;;11.43;2.30;;;4.70;99.90;;;;;;4900642;29;20926;-83
2023/03/04 08:19:35;;;;;;;8.83;2.70;;;4.70;99.90;;;;;;4900428;29;20230;-83
2023/03/04 08:22:01;;;;;;;8.93;2.50;;;4.70;99.90;;;;;;4885018;29;20239;-84
2023/03/04 08:24:29;;;;;;;3.60;2.00;;;4.80;99.90;;;;;;4902162;29;20686;-84
2023/03/04 08:26:55;;;;;;;6.97;2.40;;;4.80;99.90;;;;;;4885101;29;20215;-84
2023/03/04 08:29:23;;;;;;;6.10;2.10;;;4.80;99.90;;;;;;4900033;29;20191;-84
2023/03/04 08:31:50;;;;;;;6.47;1.80;;;4.80;99.90;;;;;;4884584;29;20611;-84
2023/03/04 08:34:17;;;;;;;4.70;2.13;;;4.80;99.90;;;;;;4885191;29;20180;-84
2023/03/04 08:36:42;;;;;;;6.07;2.20;;;4.80;99.90;;;;;;4884942;29;20641;-83
2023/03/04 08:39:11;;;;;;;5.73;1.87;;;4.80;99.90;;;;;;4885057;29;20191;-84
2023/03/04 08:41:37;;;;;;;6.73;1.80;;;4.80;99.90;;;;;;4885196;29;20606;-85
2023/03/04 08:44:04;;;;;;;8.47;2.07;;;4.90;99.90;;;;;;4884733;29;20195;-83
2023/03/04 08:46:30;;;;;;;5.10;2.37;;;4.80;99.90;;;;;;4884815;29;20235;-83
2023/03/04 08:48:55;;;;;;;4.57;1.97;;;4.80;99.90;;;;;;4885171;29;20234;-84
2023/03/04 08:51:22;;;;;;;5.87;2.10;;;4.90;99.90;;;;;;4884441;29;20198;-83
2023/03/04 08:53:47;;;;;;;7.30;1.90;;;4.90;99.90;;;;;;4884906;29;20187;-83
2023/03/04 08:56:14;;;;;;;8.07;2.20;;;4.90;99.90;;;;;;4884980;29;20187;-85
2023/03/04 08:58:40;;;;;;;11.30;1.97;;;4.90;99.90;;;;;;4885087;29;20214;-85
2023/03/04 09:01:10;;;;;;;8.53;1.93;;;4.90;99.90;;;;;;4900240;29;20201;-83
2023/03/04 09:03:37;;;;;;;11.50;2.03;;;5.00;99.90;;;;;;4884639;29;20179;-83
2023/03/04 09:06:03;;;;;;;16.03;2.03;;;5.10;99.90;;;;;;4884189;29;20268;-82
2023/03/04 09:08:29;;;;;;;8.90;2.20;;;5.20;99.90;;;;;;4901105;29;20222;-84
2023/03/04 09:10:55;;;;;;;10.00;2.50;;;5.30;99.90;;;;;;4884832;29;20198;-83
2023/03/04 09:13:22;;;;;;;9.43;2.00;;;5.40;99.90;;;;;;4884701;29;20191;-83
2023/03/04 09:15:50;;;;;;;14.10;2.13;;;5.40;99.90;;;;;;4884153;29;20195;-84
2023/03/04 09:18:17;;;;;;;8.27;2.00;;;5.50;99.90;;;;;;4882872;29;20640;-83
2023/03/04 09:20:44;;;;;;;12.80;2.13;;;5.50;99.90;;;;;;4884433;29;20384;-84
2023/03/04 09:23:10;;;;;;;13.93;2.20;;;5.50;99.90;;;;;;4884006;29;20656;-84
2023/03/04 09:25:37;;;;;;;9.10;1.77;;;5.50;99.90;;;;;;4883867;29;20229;-84
2023/03/04 09:28:04;;;;;;;9.20;1.93;;;5.50;99.90;;;;;;4883995;29;20187;-84
2023/03/04 09:30:30;;;;;;;17.70;1.90;;;5.50;99.90;;;;;;4900489;29;20274;-85
2023/03/04 09:32:56;;;;;;;7.90;2.10;;;5.50;99.90;;;;;;4883239;29;20278;-82
2023/03/04 09:35:22;;;;;;;8.03;2.07;;;5.50;99.90;;;;;;4898403;29;20195;-85
2023/03/04 09:37:48;;;;;;;9.30;1.77;;;5.50;99.90;;;;;;4883164;29;20237;-83
2023/03/04 09:40:25;;;;;;;8.90;1.93;;;5.60;99.90;;;;;;4884105;29;20211;-83
2023/03/04 09:42:55;;;;;;;7.13;1.60;;;5.70;99.90;;;;;;4898990;29;20179;-85
2023/03/04 09:45:24;;;;;;;7.80;1.30;;;5.70;99.90;;;;;;4882309;29;20198;-83
2023/03/04 09:47:53;;;;;;;9.00;2.40;;;5.70;99.90;;;;;;4883806;29;20194;-83
2023/03/04 09:50:20;;;;;;;9.20;1.63;;;5.80;99.90;;;;;;4881124;29;20187;-83
2023/03/04 09:53:11;;;;;;;12.40;2.33;;;5.70;99.90;;;;;;4883433;29;20242;-84
2023/03/04 09:55:40;;;;;;;8.00;1.57;;;5.80;99.90;;;;;;4883886;29;20183;-83
2023/03/04 09:58:21;;;;;;;10.07;2.13;;;5.90;99.90;;;;;;4882843;29;20217;-83
2023/03/04 10:01:00;;;;;;;9.83;1.77;;;5.90;99.90;;;;;;4883685;29;20235;-83
2023/03/04 10:03:52;;;;;;;12.13;1.90;;;5.90;99.90;;;;;;4898121;29;20191;-83
2023/03/04 10:06:20;;;;;;;13.53;2.17;;;5.80;99.90;;;;;;4883405;29;20355;-83
2023/03/04 10:08:57;;;;;;;19.67;2.67;;;5.80;99.90;;;;;;4899121;29;20187;-83
2023/03/04 10:11:32;;;;;;;11.97;2.33;;;5.80;99.90;;;;;;4898870;29;20179;-84
2023/03/04 10:14:19;;;;;;;9.53;2.07;;;5.90;99.90;;;;;;4880982;29;20604;-84
2023/03/04 10:16:55;;;;;;;14.80;2.23;;;5.90;99.90;;;;;;4888110;29;20654;-83
2023/03/04 10:20:02;;;;;;;13.27;2.50;;;5.80;99.90;;;;;;4881759;29;20333;-82
2023/03/04 10:22:51;;;;;;;11.80;2.00;;;5.80;99.90;;;;;;4898564;29;20258;-84
2023/03/04 10:25:23;;;;;;;12.70;2.17;;;5.80;99.90;;;;;;4859899;29;20694;-83
2023/03/04 10:27:54;;;;;;;10.57;2.30;;;5.70;99.90;;;;;;4883147;29;20266;-83
2023/03/04 10:30:23;;;;;;;8.33;2.27;;;5.80;99.90;;;;;;4898978;29;20608;-86
2023/03/04 10:32:49;;;;;;;11.13;2.20;;;5.80;99.90;;;;;;4898680;29;20191;-82
2023/03/04 10:35:14;;;;;;;10.77;2.20;;;5.80;99.90;;;;;;4881791;29;20243;-83
2023/03/04 10:37:47;;;;;;;15.97;2.37;;;5.80;99.90;;;;;;4882480;29;20191;-81
2023/03/04 10:40:24;;;;;;;9.00;2.50;;;5.80;99.90;;;;;;4882906;29;20290;-82
2023/03/04 10:42:51;;;;;;;7.97;1.73;;;5.60;99.90;;;;;;4865864;29;20492;-83
2023/03/04 10:45:23;;;;;;;11.83;2.17;;;5.70;99.90;;;;;;4882983;29;20244;-84
2023/03/04 10:47:55;;;;;;;10.40;2.07;;;5.70;99.90;;;;;;4899630;29;20188;-83
2023/03/04 10:50:27;;;;;;;11.17;1.90;;;5.80;99.90;;;;;;4882232;29;20278;-83
2023/03/04 10:52:55;;;;;;;15.23;1.87;;;5.90;99.90;;;;;;4882654;29;20564;-83
2023/03/04 10:55:28;;;;;;;8.43;1.60;;;5.90;99.90;;;;;;4897951;29;20511;-83
2023/03/04 10:58:03;;;;;;;9.33;1.83;;;5.90;99.90;;;;;;4882251;29;20176;-83
2023/03/04 11:00:36;;;;;;;7.40;1.63;;;6.00;99.90;;;;;;4863187;29;20171;-82
2023/03/04 11:03:46;;;;;;;6.37;1.60;;;6.00;99.90;;;;;;5125678;27;20533;-82
2023/03/04 11:06:21;;;;;;;8.87;1.70;;;6.10;99.90;;;;;;5109762;28;20660;-83
2023/03/04 11:08:58;;;;;;;9.67;1.70;;;6.10;99.90;;;;;;5095072;28;20183;-83
2023/03/04 11:11:37;;;;;;;8.20;1.77;;;6.20;99.90;;;;;;5089338;28;20195;-83
2023/03/04 11:14:19;;;;;;;4.77;1.40;;;6.40;99.90;;;;;;5111322;28;20184;-84
2023/03/04 11:17:26;;;;;;;7.97;1.40;;;6.50;99.90;;;;;;5109982;28;20164;-83
2023/03/04 11:19:56;;;;;;;8.07;1.47;;;6.50;99.90;;;;;;5082114;28;20195;-83
2023/03/04 11:22:24;;;;;;;6.53;1.57;;;6.60;99.90;;;;;;5110316;28;20246;-84
2023/03/04 11:25:20;;;;;;;10.17;1.70;;;6.70;99.90;;;;;;5110379;28;20179;-83
2023/03/04 11:27:50;;;;;;;5.13;1.27;;;6.70;99.90;;;;;;5103867;28;20188;-82
2023/03/04 11:30:21;;;;;;;4.67;1.23;;;6.70;99.90;;;;;;5109830;28;20176;-83
2023/03/04 11:32:50;;;;;;;6.10;1.27;;;6.80;99.90;;;;;;5123046;28;20525;-83
2023/03/04 11:35:48;;;;;;;4.23;1.20;;;7.00;99.90;;;;;;5110813;28;20153;-82
2023/03/04 11:38:32;;;;;;;10.10;1.40;;;6.90;99.90;;;;;;5086109;28;20196;-83
2023/03/04 11:41:04;;;;;;;4.90;1.10;;;6.70;99.90;;;;;;5108726;28;20172;-82
2023/03/04 11:43:40;;;;;;;4.17;1.10;;;6.70;99.90;;;;;;5092494;28;20188;-84
2023/03/04 11:46:30;;;;;;;4.60;0.97;;;6.50;99.90;;;;;;5092694;28;20172;-83
2023/03/04 11:49:20;;;;;;;4.93;1.67;;;6.30;99.90;;;;;;5109000;28;20172;-84
2023/03/04 11:52:03;;;;;;;4.50;1.17;;;6.10;99.90;;;;;;5080386;28;20203;-83
2023/03/04 11:54:44;;;;;;;6.93;1.10;;;6.20;99.90;;;;;;5114083;28;20648;-82
2023/03/04 11:58:00;;;;;;;8.70;1.83;;;6.30;99.90;;;;;;5108677;28;20180;-83
2023/03/04 12:00:47;;;;;;;7.70;1.53;;;6.70;99.90;;;;;;5086057;28;20196;-83
2023/03/04 12:03:29;;;;;;;7.47;1.50;;;6.80;99.90;;;;;;5096543;28;20196;-83
2023/03/04 12:06:14;;;;;;;6.60;1.80;;;6.80;99.90;;;;;;5109368;28;20171;-84
2023/03/04 12:09:33;;;;;;;6.50;1.43;;;6.70;99.90;;;;;;5109606;28;20216;-82
2023/03/04 12:12:17;;;;;;;6.93;1.43;;;6.60;99.90;;;;;;5047588;28;20194;-84
2023/03/04 12:14:52;;;;;;;2.80;1.37;;;6.40;99.90;;;;;;5075775;28;20184;-82
2023/03/04 12:17:46;;;;;;;9.07;1.50;;;6.20;99.90;;;;;;5095578;28;20183;-84
2023/03/04 12:20:27;;;;;;;7.73;1.67;;;6.20;99.90;;;;;;5095211;28;20240;-85
2023/03/04 12:23:14;;;;;;;4.53;1.33;;;6.30;99.90;;;;;;5094710;28;20208;-84
2023/03/04 12:25:54;;;;;;;6.17;1.63;;;6.40;99.90;;;;;;5095670;28;20188;-83
2023/03/04 12:28:58;;;;;;;6.23;1.47;;;6.40;99.90;;;;;;5094702;28;20638;-83
2023/03/04 12:31:39;;;;;;;5.50;1.10;;;6.50;99.90;;;;;;5095312;28;20211;-83
2023/03/04 12:34:17;;;;;;;6.37;1.00;;;6.40;99.90;;;;;;5095913;28;20188;-83
2023/03/04 12:36:49;;;;;;;4.57;0.80;;;6.20;99.90;;;;;;5091581;28;20272;-87
2023/03/04 12:39:33;;;;;;;4.23;1.10;;;5.90;99.90;;;;;;5094365;28;20619;-84
2023/03/04 12:42:08;;;;;;;4.10;1.17;;;5.90;99.90;;;;;;5098394;28;20231;-85
2023/03/04 12:45:00;;;;;;;2.83;0.90;;;6.00;99.90;;;;;;5094814;28;20207;-83
2023/03/04 12:47:48;;;;;;;2.67;1.00;;;6.10;99.90;;;;;;5090667;28;20173;-84
2023/03/04 12:50:37;;;;;;;4.90;1.33;;;6.20;99.90;;;;;;5100993;28;20180;-84
2023/03/04 12:53:20;;;;;;;7.17;1.83;;;6.30;99.90;;;;;;5094022;28;20172;-84
2023/03/04 12:55:48;;;;;;;16.03;2.20;;;6.30;99.90;;;;;;5092844;28;20173;-82
2023/03/04 12:58:19;;;;;;;7.73;1.67;;;6.40;99.90;;;;;;5095765;28;20611;-85
2023/03/04 13:01:08;;;;;;;8.13;1.67;;;6.60;99.90;;;;;;5094548;28;20200;-84
2023/03/04 13:03:52;;;;;;;8.13;1.57;;;6.60;99.90;;;;;;5056499;28;20246;-84
2023/03/04 13:07:12;;;;;;;6.13;1.87;;;6.50;99.90;;;;;;5056340;28;20599;-86
2023/03/04 13:09:51;;;;;;;8.00;1.83;;;6.30;99.90;;;;;;5033365;28;20625;-84
2023/03/04 13:12:19;;;;;;;8.30;2.00;;;6.30;99.90;;;;;;5053200;28;20223;-84
2023/03/04 13:15:07;;;;;;;7.37;1.93;;;6.20;99.90;;;;;;5075451;28;20177;-84
2023/03/04 13:17:42;;;;;;;7.00;2.10;;;6.30;99.90;;;;;;5057275;28;20191;-86
2023/03/04 13:20:30;;;;;;;10.23;1.70;;;6.40;99.90;;;;;;5062703;28;20176;-84
2023/03/04 13:23:00;;;;;;;6.57;1.93;;;6.50;99.90;;;;;;5074034;28;20567;-83